sensor_id;sensor_type;location;lat;lon;timestamp;temperature;humidity
72380;SHT30;60354;47.798;12.472;2024-02-21T00:00:39;3.64;84.56
72380;SHT30;60354;47.798;12.472;2024-02-21T00:03:05;3.63;84.68
72380;SHT30;60354;47.798;12.472;2024-02-21T00:05:31;3.60;84.69
72380;SHT30;60354;47.798;12.472;2024-02-21T00:07:58;3.60;84.76
72380;SHT30;60354;47.798;12.472;2024-02-21T00:10:25;3.59;84.64
72380;SHT30;60354;47.798;12.472;2024-02-21T00:12:51;3.63;84.51
72380;SHT30;60354;47.798;12.472;2024-02-21T00:15:16;3.60;84.69
72380;SHT30;60354;47.798;12.472;2024-02-21T00:17:43;3.63;85.18
72380;SHT30;60354;47.798;12.472;2024-02-21T00:20:09;3.66;84.78
72380;SHT30;60354;47.798;12.472;2024-02-21T00:22:35;3.71;84.25
72380;SHT30;60354;47.798;12.472;2024-02-21T00:25:01;3.71;85.00
72380;SHT30;60354;47.798;12.472;2024-02-21T00:27:27;3.67;84.94
72380;SHT30;60354;47.798;12.472;2024-02-21T00:29:53;3.71;84.81
72380;SHT30;60354;47.798;12.472;2024-02-21T00:32:18;3.73;84.56
72380;SHT30;60354;47.798;12.472;2024-02-21T00:34:44;3.73;84.67
72380;SHT30;60354;47.798;12.472;2024-02-21T00:37:09;3.74;84.82
72380;SHT30;60354;47.798;12.472;2024-02-21T00:39:35;3.76;85.06
72380;SHT30;60354;47.798;12.472;2024-02-21T00:42:01;3.77;84.60
72380;SHT30;60354;47.798;12.472;2024-02-21T00:44:29;3.69;85.06
72380;SHT30;60354;47.798;12.472;2024-02-21T00:46:54;3.73;84.67
72380;SHT30;60354;47.798;12.472;2024-02-21T00:49:20;3.76;84.44
72380;SHT30;60354;47.798;12.472;2024-02-21T00:51:46;3.84;84.06
72380;SHT30;60354;47.798;12.472;2024-02-21T00:54:12;3.84;83.79
72380;SHT30;60354;47.798;12.472;2024-02-21T00:56:37;3.84;84.53
72380;SHT30;60354;47.798;12.472;2024-02-21T00:59:03;3.80;84.75
72380;SHT30;60354;47.798;12.472;2024-02-21T01:01:28;3.84;84.46
72380;SHT30;60354;47.798;12.472;2024-02-21T01:03:54;3.84;84.16
72380;SHT30;60354;47.798;12.472;2024-02-21T01:06:19;3.83;84.49
72380;SHT30;60354;47.798;12.472;2024-02-21T01:08:48;3.77;84.76
72380;SHT30;60354;47.798;12.472;2024-02-21T01:11:15;3.74;85.04
72380;SHT30;60354;47.798;12.472;2024-02-21T01:13:41;3.73;85.04
72380;SHT30;60354;47.798;12.472;2024-02-21T01:16:06;3.73;85.02
72380;SHT30;60354;47.798;12.472;2024-02-21T01:18:33;3.73;85.19
72380;SHT30;60354;47.798;12.472;2024-02-21T01:20:58;3.74;85.33
72380;SHT30;60354;47.798;12.472;2024-02-21T01:23:24;3.76;85.22
72380;SHT30;60354;47.798;12.472;2024-02-21T01:25:50;3.79;84.55
72380;SHT30;60354;47.798;12.472;2024-02-21T01:28:16;3.86;84.02
72380;SHT30;60354;47.798;12.472;2024-02-21T01:30:41;3.95;84.07
72380;SHT30;60354;47.798;12.472;2024-02-21T01:33:07;4.01;83.64
72380;SHT30;60354;47.798;12.472;2024-02-21T01:35:33;4.07;83.09
72380;SHT30;60354;47.798;12.472;2024-02-21T01:37:59;4.11;83.25
72380;SHT30;60354;47.798;12.472;2024-02-21T01:40:25;4.12;83.26
72380;SHT30;60354;47.798;12.472;2024-02-21T01:42:50;4.14;83.31
72380;SHT30;60354;47.798;12.472;2024-02-21T01:45:19;4.12;83.15
72380;SHT30;60354;47.798;12.472;2024-02-21T01:47:44;4.19;82.94
72380;SHT30;60354;47.798;12.472;2024-02-21T01:50:11;4.22;82.90
72380;SHT30;60354;47.798;12.472;2024-02-21T01:52:38;4.28;83.37
72380;SHT30;60354;47.798;12.472;2024-02-21T01:55:05;4.28;82.29
72380;SHT30;60354;47.798;12.472;2024-02-21T01:57:31;4.32;82.40
72380;SHT30;60354;47.798;12.472;2024-02-21T01:59:57;4.28;82.53
72380;SHT30;60354;47.798;12.472;2024-02-21T02:02:22;4.35;81.82
72380;SHT30;60354;47.798;12.472;2024-02-21T02:04:48;4.29;81.68
72380;SHT30;60354;47.798;12.472;2024-02-21T02:07:14;4.37;81.58
72380;SHT30;60354;47.798;12.472;2024-02-21T02:09:39;4.32;81.23
72380;SHT30;60354;47.798;12.472;2024-02-21T02:12:05;4.37;80.70
72380;SHT30;60354;47.798;12.472;2024-02-21T02:14:33;4.44;80.27
72380;SHT30;60354;47.798;12.472;2024-02-21T02:16:58;4.48;80.39
72380;SHT30;60354;47.798;12.472;2024-02-21T02:19:24;4.48;80.18
72380;SHT30;60354;47.798;12.472;2024-02-21T02:21:51;4.46;80.37
72380;SHT30;60354;47.798;12.472;2024-02-21T02:24:24;4.38;81.25
72380;SHT30;60354;47.798;12.472;2024-02-21T02:26:49;4.34;81.03
72380;SHT30;60354;47.798;12.472;2024-02-21T02:29:15;4.34;81.09
72380;SHT30;60354;47.798;12.472;2024-02-21T02:31:42;4.34;81.40
72380;SHT30;60354;47.798;12.472;2024-02-21T02:34:07;4.37;81.60
72380;SHT30;60354;47.798;12.472;2024-02-21T02:36:33;4.31;81.40
72380;SHT30;60354;47.798;12.472;2024-02-21T02:38:59;4.32;81.17
72380;SHT30;60354;47.798;12.472;2024-02-21T02:41:24;4.28;81.59
72380;SHT30;60354;47.798;12.472;2024-02-21T02:43:50;4.24;81.54
72380;SHT30;60354;47.798;12.472;2024-02-21T02:46:15;4.24;81.86
72380;SHT30;60354;47.798;12.472;2024-02-21T02:48:41;4.22;82.58
72380;SHT30;60354;47.798;12.472;2024-02-21T02:51:06;4.15;82.31
72380;SHT30;60354;47.798;12.472;2024-02-21T02:53:32;4.12;82.40
72380;SHT30;60354;47.798;12.472;2024-02-21T02:55:57;4.08;82.81
72380;SHT30;60354;47.798;12.472;2024-02-21T02:58:23;4.07;82.94
72380;SHT30;60354;47.798;12.472;2024-02-21T03:00:48;4.04;83.21
72380;SHT30;60354;47.798;12.472;2024-02-21T03:03:14;4.00;83.68
72380;SHT30;60354;47.798;12.472;2024-02-21T03:05:39;4.01;83.00
72380;SHT30;60354;47.798;12.472;2024-02-21T03:08:05;4.05;82.83
72380;SHT30;60354;47.798;12.472;2024-02-21T03:10:35;4.12;82.20
72380;SHT30;60354;47.798;12.472;2024-02-21T03:13:01;4.15;82.06
72380;SHT30;60354;47.798;12.472;2024-02-21T03:15:26;4.24;81.95
72380;SHT30;60354;47.798;12.472;2024-02-21T03:17:52;4.24;82.40
72380;SHT30;60354;47.798;12.472;2024-02-21T03:20:17;4.18;82.18
72380;SHT30;60354;47.798;12.472;2024-02-21T03:22:45;4.24;81.82
72380;SHT30;60354;47.798;12.472;2024-02-21T03:25:10;4.32;80.92
72380;SHT30;60354;47.798;12.472;2024-02-21T03:27:36;4.31;81.05
72380;SHT30;60354;47.798;12.472;2024-02-21T03:30:02;4.28;81.17
72380;SHT30;60354;47.798;12.472;2024-02-21T03:32:28;4.19;81.56
72380;SHT30;60354;47.798;12.472;2024-02-21T03:34:54;4.17;81.97
72380;SHT30;60354;47.798;12.472;2024-02-21T03:37:20;4.15;81.61
72380;SHT30;60354;47.798;12.472;2024-02-21T03:39:45;4.22;80.79
72380;SHT30;60354;47.798;12.472;2024-02-21T03:42:11;4.27;80.82
72380;SHT30;60354;47.798;12.472;2024-02-21T03:44:37;4.31;80.45
72380;SHT30;60354;47.798;12.472;2024-02-21T03:47:02;4.31;80.98
72380;SHT30;60354;47.798;12.472;2024-02-21T03:49:28;4.35;80.63
72380;SHT30;60354;47.798;12.472;2024-02-21T03:51:54;4.31;81.19
72380;SHT30;60354;47.798;12.472;2024-02-21T03:54:20;4.29;80.94
72380;SHT30;60354;47.798;12.472;2024-02-21T03:56:45;4.29;80.99
72380;SHT30;60354;47.798;12.472;2024-02-21T03:59:13;4.31;80.66
72380;SHT30;60354;47.798;12.472;2024-02-21T04:01:38;4.22;81.11
72380;SHT30;60354;47.798;12.472;2024-02-21T04:04:04;4.34;81.36
72380;SHT30;60354;47.798;12.472;2024-02-21T04:06:29;4.25;81.48
72380;SHT30;60354;47.798;12.472;2024-02-21T04:08:55;4.21;80.81
72380;SHT30;60354;47.798;12.472;2024-02-21T04:11:21;4.15;80.79
72380;SHT30;60354;47.798;12.472;2024-02-21T04:13:46;4.24;80.96
72380;SHT30;60354;47.798;12.472;2024-02-21T04:16:14;4.25;80.19
72380;SHT30;60354;47.798;12.472;2024-02-21T04:18:40;4.27;80.04
72380;SHT30;60354;47.798;12.472;2024-02-21T04:21:05;4.24;80.56
72380;SHT30;60354;47.798;12.472;2024-02-21T04:23:31;4.22;80.23
72380;SHT30;60354;47.798;12.472;2024-02-21T04:25:56;4.21;80.66
72380;SHT30;60354;47.798;12.472;2024-02-21T04:28:22;4.17;80.75
72380;SHT30;60354;47.798;12.472;2024-02-21T04:30:47;4.07;81.39
72380;SHT30;60354;47.798;12.472;2024-02-21T04:33:13;4.07;81.90
72380;SHT30;60354;47.798;12.472;2024-02-21T04:35:38;3.97;81.98
72380;SHT30;60354;47.798;12.472;2024-02-21T04:38:04;3.91;82.13
72380;SHT30;60354;47.798;12.472;2024-02-21T04:40:30;3.88;82.47
72380;SHT30;60354;47.798;12.472;2024-02-21T04:42:57;3.88;82.44
72380;SHT30;60354;47.798;12.472;2024-02-21T04:45:22;3.86;82.58
72380;SHT30;60354;47.798;12.472;2024-02-21T04:47:48;3.87;82.69
72380;SHT30;60354;47.798;12.472;2024-02-21T04:50:13;3.88;83.07
72380;SHT30;60354;47.798;12.472;2024-02-21T04:52:39;3.77;83.33
72380;SHT30;60354;47.798;12.472;2024-02-21T04:55:04;3.74;83.64
72380;SHT30;60354;47.798;12.472;2024-02-21T04:57:30;3.77;83.21
72380;SHT30;60354;47.798;12.472;2024-02-21T04:59:55;3.70;83.29
72380;SHT30;60354;47.798;12.472;2024-02-21T05:02:21;3.70;83.56
72380;SHT30;60354;47.798;12.472;2024-02-21T05:04:49;3.69;83.75
72380;SHT30;60354;47.798;12.472;2024-02-21T05:07:15;3.73;83.87
72380;SHT30;60354;47.798;12.472;2024-02-21T05:09:44;3.77;83.75
72380;SHT30;60354;47.798;12.472;2024-02-21T05:12:09;3.74;83.62
72380;SHT30;60354;47.798;12.472;2024-02-21T05:14:35;3.74;83.40
72380;SHT30;60354;47.798;12.472;2024-02-21T05:17:00;3.74;83.49
72380;SHT30;60354;47.798;12.472;2024-02-21T05:19:26;3.74;83.61
72380;SHT30;60354;47.798;12.472;2024-02-21T05:21:55;3.74;83.75
72380;SHT30;60354;47.798;12.472;2024-02-21T05:24:21;3.69;83.82
72380;SHT30;60354;47.798;12.472;2024-02-21T05:26:46;3.70;83.69
72380;SHT30;60354;47.798;12.472;2024-02-21T05:29:12;3.70;83.30
72380;SHT30;60354;47.798;12.472;2024-02-21T05:34:19;3.76;83.04
72380;SHT30;60354;47.798;12.472;2024-02-21T05:36:44;3.80;82.71
72380;SHT30;60354;47.798;12.472;2024-02-21T05:39:10;3.81;82.65
72380;SHT30;60354;47.798;12.472;2024-02-21T05:41:35;3.70;83.05
72380;SHT30;60354;47.798;12.472;2024-02-21T05:44:01;3.64;83.74
72380;SHT30;60354;47.798;12.472;2024-02-21T05:46:26;3.69;83.77
72380;SHT30;60354;47.798;12.472;2024-02-21T05:48:52;3.63;83.83
72380;SHT30;60354;47.798;12.472;2024-02-21T05:51:17;3.62;83.72
72380;SHT30;60354;47.798;12.472;2024-02-21T05:53:43;3.62;83.71
72380;SHT30;60354;47.798;12.472;2024-02-21T05:56:12;3.60;83.74
72380;SHT30;60354;47.798;12.472;2024-02-21T05:58:38;3.63;83.81
72380;SHT30;60354;47.798;12.472;2024-02-21T06:01:03;3.66;83.67
72380;SHT30;60354;47.798;12.472;2024-02-21T06:03:30;3.70;83.03
72380;SHT30;60354;47.798;12.472;2024-02-21T06:05:56;3.80;81.78
72380;SHT30;60354;47.798;12.472;2024-02-21T06:08:21;3.88;81.53
72380;SHT30;60354;47.798;12.472;2024-02-21T06:10:47;3.98;80.75
72380;SHT30;60354;47.798;12.472;2024-02-21T06:13:14;4.01;80.29
72380;SHT30;60354;47.798;12.472;2024-02-21T06:15:39;4.08;80.36
72380;SHT30;60354;47.798;12.472;2024-02-21T06:18:05;4.05;80.61
72380;SHT30;60354;47.798;12.472;2024-02-21T06:20:30;4.00;80.94
72380;SHT30;60354;47.798;12.472;2024-02-21T06:22:57;4.00;80.74
72380;SHT30;60354;47.798;12.472;2024-02-21T06:25:22;4.02;80.71
72380;SHT30;60354;47.798;12.472;2024-02-21T06:27:48;4.02;80.57
72380;SHT30;60354;47.798;12.472;2024-02-21T06:30:13;4.04;80.62
72380;SHT30;60354;47.798;12.472;2024-02-21T06:32:39;4.05;80.43
72380;SHT30;60354;47.798;12.472;2024-02-21T06:35:05;4.14;79.69
72380;SHT30;60354;47.798;12.472;2024-02-21T06:37:30;4.17;79.63
72380;SHT30;60354;47.798;12.472;2024-02-21T06:39:57;4.22;79.18
72380;SHT30;60354;47.798;12.472;2024-02-21T06:42:24;4.27;78.72
72380;SHT30;60354;47.798;12.472;2024-02-21T06:44:50;4.42;77.90
72380;SHT30;60354;47.798;12.472;2024-02-21T06:47:18;4.50;77.08
72380;SHT30;60354;47.798;12.472;2024-02-21T06:49:48;4.62;76.07
72380;SHT30;60354;47.798;12.472;2024-02-21T06:52:14;4.65;76.69
72380;SHT30;60354;47.798;12.472;2024-02-21T06:54:42;4.65;77.24
72380;SHT30;60354;47.798;12.472;2024-02-21T06:57:08;4.72;77.10
72380;SHT30;60354;47.798;12.472;2024-02-21T06:59:33;4.69;76.77
72380;SHT30;60354;47.798;12.472;2024-02-21T07:01:59;4.69;76.73
72380;SHT30;60354;47.798;12.472;2024-02-21T07:04:26;4.72;76.00
72380;SHT30;60354;47.798;12.472;2024-02-21T07:06:52;4.75;76.09
72380;SHT30;60354;47.798;12.472;2024-02-21T07:09:17;4.80;75.21
72380;SHT30;60354;47.798;12.472;2024-02-21T07:11:43;4.83;74.93
72380;SHT30;60354;47.798;12.472;2024-02-21T07:14:08;4.84;75.01
72380;SHT30;60354;47.798;12.472;2024-02-21T07:16:34;4.83;74.85
72380;SHT30;60354;47.798;12.472;2024-02-21T07:19:00;4.83;74.76
72380;SHT30;60354;47.798;12.472;2024-02-21T07:21:25;4.77;75.58
72380;SHT30;60354;47.798;12.472;2024-02-21T07:23:51;4.70;75.74
72380;SHT30;60354;47.798;12.472;2024-02-21T07:26:16;4.70;75.90
72380;SHT30;60354;47.798;12.472;2024-02-21T07:28:44;4.66;75.37
72380;SHT30;60354;47.798;12.472;2024-02-21T07:31:09;4.70;75.32
72380;SHT30;60354;47.798;12.472;2024-02-21T07:33:35;4.75;75.17
72380;SHT30;60354;47.798;12.472;2024-02-21T07:36:01;4.94;75.12
72380;SHT30;60354;47.798;12.472;2024-02-21T07:38:26;5.30;73.66
72380;SHT30;60354;47.798;12.472;2024-02-21T07:40:52;5.61;72.61
72380;SHT30;60354;47.798;12.472;2024-02-21T07:43:17;5.89;71.29
72380;SHT30;60354;47.798;12.472;2024-02-21T07:45:43;6.07;70.55
72380;SHT30;60354;47.798;12.472;2024-02-21T07:48:08;5.95;70.91
72380;SHT30;60354;47.798;12.472;2024-02-21T07:50:34;5.89;70.62
72380;SHT30;60354;47.798;12.472;2024-02-21T07:52:59;5.90;70.73
72380;SHT30;60354;47.798;12.472;2024-02-21T07:55:25;5.95;70.16
72380;SHT30;60354;47.798;12.472;2024-02-21T07:57:50;5.89;71.57
72380;SHT30;60354;47.798;12.472;2024-02-21T08:00:16;5.86;72.54
72380;SHT30;60354;47.798;12.472;2024-02-21T08:02:51;5.83;72.07
72380;SHT30;60354;47.798;12.472;2024-02-21T08:05:16;5.88;71.65
72380;SHT30;60354;47.798;12.472;2024-02-21T08:07:42;5.86;71.62
72380;SHT30;60354;47.798;12.472;2024-02-21T08:10:08;5.89;70.95
72380;SHT30;60354;47.798;12.472;2024-02-21T08:12:33;5.89;71.69
72380;SHT30;60354;47.798;12.472;2024-02-21T08:15:00;5.86;71.78
72380;SHT30;60354;47.798;12.472;2024-02-21T08:17:25;5.88;71.58
72380;SHT30;60354;47.798;12.472;2024-02-21T08:19:51;5.88;71.75
72380;SHT30;60354;47.798;12.472;2024-02-21T08:22:16;5.89;71.08
72380;SHT30;60354;47.798;12.472;2024-02-21T08:24:42;5.96;70.79
72380;SHT30;60354;47.798;12.472;2024-02-21T08:27:07;5.99;70.83
72380;SHT30;60354;47.798;12.472;2024-02-21T08:29:33;6.02;70.32
72380;SHT30;60354;47.798;12.472;2024-02-21T08:31:58;6.12;69.80
72380;SHT30;60354;47.798;12.472;2024-02-21T08:34:24;6.40;71.75
72380;SHT30;60354;47.798;12.472;2024-02-21T08:36:49;6.34;69.38
72380;SHT30;60354;47.798;12.472;2024-02-21T08:39:15;6.38;69.54
72380;SHT30;60354;47.798;12.472;2024-02-21T08:41:43;6.44;69.54
72380;SHT30;60354;47.798;12.472;2024-02-21T08:44:09;6.43;69.24
72380;SHT30;60354;47.798;12.472;2024-02-21T08:46:34;6.44;69.17
72380;SHT30;60354;47.798;12.472;2024-02-21T08:49:00;6.54;69.43
72380;SHT30;60354;47.798;12.472;2024-02-21T08:51:28;6.58;68.82
72380;SHT30;60354;47.798;12.472;2024-02-21T08:53:54;6.64;68.06
72380;SHT30;60354;47.798;12.472;2024-02-21T08:56:22;6.75;68.26
72380;SHT30;60354;47.798;12.472;2024-02-21T08:58:48;6.91;67.43
72380;SHT30;60354;47.798;12.472;2024-02-21T09:01:13;6.88;68.36
72380;SHT30;60354;47.798;12.472;2024-02-21T09:03:40;7.01;68.28
72380;SHT30;60354;47.798;12.472;2024-02-21T09:06:06;7.20;66.79
72380;SHT30;60354;47.798;12.472;2024-02-21T09:08:34;7.50;67.11
72380;SHT30;60354;47.798;12.472;2024-02-21T09:11:00;7.56;66.01
72380;SHT30;60354;47.798;12.472;2024-02-21T09:13:26;7.90;65.29
72380;SHT30;60354;47.798;12.472;2024-02-21T09:15:52;7.98;64.33
72380;SHT30;60354;47.798;12.472;2024-02-21T09:18:17;7.97;64.72
72380;SHT30;60354;47.798;12.472;2024-02-21T09:20:43;8.25;64.77
72380;SHT30;60354;47.798;12.472;2024-02-21T09:23:09;8.35;64.15
72380;SHT30;60354;47.798;12.472;2024-02-21T09:25:34;8.22;64.38
72380;SHT30;60354;47.798;12.472;2024-02-21T09:28:01;8.11;64.55
72380;SHT30;60354;47.798;12.472;2024-02-21T09:30:27;8.05;64.51
72380;SHT30;60354;47.798;12.472;2024-02-21T09:32:53;8.08;64.65
72380;SHT30;60354;47.798;12.472;2024-02-21T09:35:18;8.20;64.99
72380;SHT30;60354;47.798;12.472;2024-02-21T09:37:44;8.11;64.85
72380;SHT30;60354;47.798;12.472;2024-02-21T09:40:09;8.01;63.80
72380;SHT30;60354;47.798;12.472;2024-02-21T09:42:39;8.04;64.15
72380;SHT30;60354;47.798;12.472;2024-02-21T09:45:10;8.01;64.16
72380;SHT30;60354;47.798;12.472;2024-02-21T09:50:29;8.15;63.35
72380;SHT30;60354;47.798;12.472;2024-02-21T09:52:57;8.21;63.33
72380;SHT30;60354;47.798;12.472;2024-02-21T09:55:25;8.21;63.58
72380;SHT30;60354;47.798;12.472;2024-02-21T09:57:53;8.28;63.28
72380;SHT30;60354;47.798;12.472;2024-02-21T10:00:19;8.31;63.01
72380;SHT30;60354;47.798;12.472;2024-02-21T10:02:50;8.24;62.52
72380;SHT30;60354;47.798;12.472;2024-02-21T10:05:16;8.22;62.93
72380;SHT30;60354;47.798;12.472;2024-02-21T10:07:43;8.22;63.60
72380;SHT30;60354;47.798;12.472;2024-02-21T10:10:14;8.25;63.28
72380;SHT30;60354;47.798;12.472;2024-02-21T10:12:51;8.31;62.38
72380;SHT30;60354;47.798;12.472;2024-02-21T10:15:24;8.35;62.62
72380;SHT30;60354;47.798;12.472;2024-02-21T10:18:00;8.45;62.98
72380;SHT30;60354;47.798;12.472;2024-02-21T10:20:26;8.50;63.31
72380;SHT30;60354;47.798;12.472;2024-02-21T10:23:05;8.60;60.83
72380;SHT30;60354;47.798;12.472;2024-02-21T10:25:35;8.50;61.58
72380;SHT30;60354;47.798;12.472;2024-02-21T10:28:02;8.53;62.27
72380;SHT30;60354;47.798;12.472;2024-02-21T10:30:28;8.48;62.93
72380;SHT30;60354;47.798;12.472;2024-02-21T10:32:54;8.43;63.39
72380;SHT30;60354;47.798;12.472;2024-02-21T10:35:32;8.52;62.25
72380;SHT30;60354;47.798;12.472;2024-02-21T10:38:00;8.73;62.08
72380;SHT30;60354;47.798;12.472;2024-02-21T10:43:28;9.17;62.47
72380;SHT30;60354;47.798;12.472;2024-02-21T10:46:08;9.52;60.94
72380;SHT30;60354;47.798;12.472;2024-02-21T10:48:59;9.86;61.18
72380;SHT30;60354;47.798;12.472;2024-02-21T10:51:46;10.06;59.80
72380;SHT30;60354;47.798;12.472;2024-02-21T10:54:30;10.34;60.59
72380;SHT30;60354;47.798;12.472;2024-02-21T10:57:34;10.47;58.63
72380;SHT30;60354;47.798;12.472;2024-02-21T11:00:20;10.69;58.02
72380;SHT30;60354;47.798;12.472;2024-02-21T11:03:00;10.65;56.64
72380;SHT30;60354;47.798;12.472;2024-02-21T11:05:29;10.71;57.13
72380;SHT30;60354;47.798;12.472;2024-02-21T11:07:55;10.74;57.52
72380;SHT30;60354;47.798;12.472;2024-02-21T11:10:26;10.86;57.22
72380;SHT30;60354;47.798;12.472;2024-02-21T11:13:07;10.98;57.99
72380;SHT30;60354;47.798;12.472;2024-02-21T11:15:33;11.05;56.95
72380;SHT30;60354;47.798;12.472;2024-02-21T11:17:59;11.30;56.86
72380;SHT30;60354;47.798;12.472;2024-02-21T11:20:34;11.29;55.85
72380;SHT30;60354;47.798;12.472;2024-02-21T11:23:00;11.44;57.23
72380;SHT30;60354;47.798;12.472;2024-02-21T11:25:26;11.44;56.85
72380;SHT30;60354;47.798;12.472;2024-02-21T11:27:59;11.63;57.03
72380;SHT30;60354;47.798;12.472;2024-02-21T11:30:31;11.67;56.10
72380;SHT30;60354;47.798;12.472;2024-02-21T11:33:05;11.77;56.54
72380;SHT30;60354;47.798;12.472;2024-02-21T11:35:32;11.78;56.27
72380;SHT30;60354;47.798;12.472;2024-02-21T11:38:14;11.91;56.30
72380;SHT30;60354;47.798;12.472;2024-02-21T11:40:46;11.94;54.49
72380;SHT30;60354;47.798;12.472;2024-02-21T11:43:12;12.08;54.66
72380;SHT30;60354;47.798;12.472;2024-02-21T11:45:37;12.21;54.42
72380;SHT30;60354;47.798;12.472;2024-02-21T11:48:07;12.28;55.19
72380;SHT30;60354;47.798;12.472;2024-02-21T11:50:36;12.32;54.72
72380;SHT30;60354;47.798;12.472;2024-02-21T11:53:04;12.24;52.64
72380;SHT30;60354;47.798;12.472;2024-02-21T11:55:30;12.22;51.73
72380;SHT30;60354;47.798;12.472;2024-02-21T11:57:55;12.25;53.25
72380;SHT30;60354;47.798;12.472;2024-02-21T12:00:21;12.18;51.72
72380;SHT30;60354;47.798;12.472;2024-02-21T12:02:47;12.24;51.66
72380;SHT30;60354;47.798;12.472;2024-02-21T12:05:13;12.34;51.36
72380;SHT30;60354;47.798;12.472;2024-02-21T12:07:39;12.31;50.66
72380;SHT30;60354;47.798;12.472;2024-02-21T12:10:11;12.44;51.19
72380;SHT30;60354;47.798;12.472;2024-02-21T12:12:37;12.56;50.90
72380;SHT30;60354;47.798;12.472;2024-02-21T12:15:04;12.69;50.07
72380;SHT30;60354;47.798;12.472;2024-02-21T12:17:36;12.65;49.66
72380;SHT30;60354;47.798;12.472;2024-02-21T12:20:06;12.48;49.41
72380;SHT30;60354;47.798;12.472;2024-02-21T12:22:43;12.50;49.61
72380;SHT30;60354;47.798;12.472;2024-02-21T12:25:21;12.56;49.76
72380;SHT30;60354;47.798;12.472;2024-02-21T12:27:52;12.62;49.17
72380;SHT30;60354;47.798;12.472;2024-02-21T12:30:18;12.72;48.93
72380;SHT30;60354;47.798;12.472;2024-02-21T12:32:47;12.83;48.88
72380;SHT30;60354;47.798;12.472;2024-02-21T12:35:14;12.86;49.69
72380;SHT30;60354;47.798;12.472;2024-02-21T12:37:39;12.92;49.11
72380;SHT30;60354;47.798;12.472;2024-02-21T12:40:05;12.90;49.00
72380;SHT30;60354;47.798;12.472;2024-02-21T12:42:35;12.82;49.29
72380;SHT30;60354;47.798;12.472;2024-02-21T12:45:02;13.06;54.55
72380;SHT30;60354;47.798;12.472;2024-02-21T12:47:28;13.03;49.86
72380;SHT30;60354;47.798;12.472;2024-02-21T12:49:54;13.06;49.30
72380;SHT30;60354;47.798;12.472;2024-02-21T12:52:19;13.04;49.23
72380;SHT30;60354;47.798;12.472;2024-02-21T12:54:45;13.08;49.63
72380;SHT30;60354;47.798;12.472;2024-02-21T12:57:10;13.10;49.48
72380;SHT30;60354;47.798;12.472;2024-02-21T12:59:36;13.07;48.78
72380;SHT30;60354;47.798;12.472;2024-02-21T13:02:01;13.00;48.61
72380;SHT30;60354;47.798;12.472;2024-02-21T13:04:26;13.07;49.33
72380;SHT30;60354;47.798;12.472;2024-02-21T13:06:52;13.06;49.34
72380;SHT30;60354;47.798;12.472;2024-02-21T13:09:17;13.10;49.91
72380;SHT30;60354;47.798;12.472;2024-02-21T13:11:43;13.17;50.76
72380;SHT30;60354;47.798;12.472;2024-02-21T13:14:11;13.31;54.88
72380;SHT30;60354;47.798;12.472;2024-02-21T13:16:36;13.24;49.07
72380;SHT30;60354;47.798;12.472;2024-02-21T13:19:08;13.24;48.62
72380;SHT30;60354;47.798;12.472;2024-02-21T13:21:36;13.23;48.04
72380;SHT30;60354;47.798;12.472;2024-02-21T13:24:02;13.16;48.55
72380;SHT30;60354;47.798;12.472;2024-02-21T13:26:28;13.16;49.21
72380;SHT30;60354;47.798;12.472;2024-02-21T13:28:53;13.13;50.05
72380;SHT30;60354;47.798;12.472;2024-02-21T13:31:20;13.06;50.51
72380;SHT30;60354;47.798;12.472;2024-02-21T13:33:45;13.14;50.74
72380;SHT30;60354;47.798;12.472;2024-02-21T13:36:11;13.21;49.92
72380;SHT30;60354;47.798;12.472;2024-02-21T13:38:37;13.24;49.78
72380;SHT30;60354;47.798;12.472;2024-02-21T13:41:05;13.18;49.32
72380;SHT30;60354;47.798;12.472;2024-02-21T13:43:30;13.27;50.07
72380;SHT30;60354;47.798;12.472;2024-02-21T13:45:57;13.16;51.08
72380;SHT30;60354;47.798;12.472;2024-02-21T13:48:23;13.16;50.75
72380;SHT30;60354;47.798;12.472;2024-02-21T13:50:49;13.17;50.71
72380;SHT30;60354;47.798;12.472;2024-02-21T13:53:15;13.23;50.48
72380;SHT30;60354;47.798;12.472;2024-02-21T13:55:44;13.30;50.46
72380;SHT30;60354;47.798;12.472;2024-02-21T13:58:09;13.21;51.30
72380;SHT30;60354;47.798;12.472;2024-02-21T14:00:35;13.18;50.46
72380;SHT30;60354;47.798;12.472;2024-02-21T14:03:01;13.17;51.07
72380;SHT30;60354;47.798;12.472;2024-02-21T14:05:27;13.17;50.25
72380;SHT30;60354;47.798;12.472;2024-02-21T14:07:52;13.20;50.66
72380;SHT30;60354;47.798;12.472;2024-02-21T14:10:22;13.16;50.02
72380;SHT30;60354;47.798;12.472;2024-02-21T14:12:48;13.20;49.68
72380;SHT30;60354;47.798;12.472;2024-02-21T14:15:14;13.17;49.83
72380;SHT30;60354;47.798;12.472;2024-02-21T14:17:42;13.17;50.00
72380;SHT30;60354;47.798;12.472;2024-02-21T14:20:08;13.14;50.61
72380;SHT30;60354;47.798;12.472;2024-02-21T14:22:34;13.16;49.99
72380;SHT30;60354;47.798;12.472;2024-02-21T14:25:00;13.13;50.19
72380;SHT30;60354;47.798;12.472;2024-02-21T14:27:26;13.17;50.65
72380;SHT30;60354;47.798;12.472;2024-02-21T14:29:51;13.16;51.57
72380;SHT30;60354;47.798;12.472;2024-02-21T14:32:17;13.16;51.65
72380;SHT30;60354;47.798;12.472;2024-02-21T14:34:42;13.13;50.14
72380;SHT30;60354;47.798;12.472;2024-02-21T14:37:08;13.06;51.06
72380;SHT30;60354;47.798;12.472;2024-02-21T14:39:33;12.99;51.06
72380;SHT30;60354;47.798;12.472;2024-02-21T14:42:00;12.97;49.96
72380;SHT30;60354;47.798;12.472;2024-02-21T14:44:26;12.96;49.92
72380;SHT30;60354;47.798;12.472;2024-02-21T14:46:52;12.92;50.72
72380;SHT30;60354;47.798;12.472;2024-02-21T14:49:18;12.90;51.58
72380;SHT30;60354;47.798;12.472;2024-02-21T14:51:44;12.92;50.54
72380;SHT30;60354;47.798;12.472;2024-02-21T14:54:10;12.86;50.93
72380;SHT30;60354;47.798;12.472;2024-02-21T14:56:36;12.79;51.64
72380;SHT30;60354;47.798;12.472;2024-02-21T14:59:02;12.75;52.92
72380;SHT30;60354;47.798;12.472;2024-02-21T15:01:28;12.73;53.24
72380;SHT30;60354;47.798;12.472;2024-02-21T15:03:53;12.63;53.85
72380;SHT30;60354;47.798;12.472;2024-02-21T15:06:19;12.70;58.05
72380;SHT30;60354;47.798;12.472;2024-02-21T15:08:44;12.72;53.29
72380;SHT30;60354;47.798;12.472;2024-02-21T15:11:10;12.75;53.64
72380;SHT30;60354;47.798;12.472;2024-02-21T15:13:35;12.73;52.55
72380;SHT30;60354;47.798;12.472;2024-02-21T15:16:02;12.72;52.49
72380;SHT30;60354;47.798;12.472;2024-02-21T15:18:27;12.72;52.50
72380;SHT30;60354;47.798;12.472;2024-02-21T15:20:53;12.66;52.50
72380;SHT30;60354;47.798;12.472;2024-02-21T15:23:18;12.66;52.97
72380;SHT30;60354;47.798;12.472;2024-02-21T15:25:45;12.67;53.47
72380;SHT30;60354;47.798;12.472;2024-02-21T15:28:11;12.66;54.06
72380;SHT30;60354;47.798;12.472;2024-02-21T15:30:38;12.56;54.51
72380;SHT30;60354;47.798;12.472;2024-02-21T15:33:03;12.53;54.94